CDT,Max TemperatureF,Mean TemperatureF,Min TemperatureF,Max Dew PointF,MeanDew PointF,Min DewpointF,Max Humidity, Mean Humidity, Min Humidity, Max Sea Level PressureIn, Mean Sea Level PressureIn, Min Sea Level PressureIn, Max VisibilityMiles, Mean VisibilityMiles, Min VisibilityMiles, Max Wind SpeedMPH, Mean Wind SpeedMPH, Max Gust SpeedMPH,PrecipitationIn, CloudCover, Events, WindDirDegrees
2013-9-1,80,64,48,48,44,39,71,49,30,30.20,30.16,30.10,10,10,10,12,4,,0.00,0,,100
2013-9-2,89,72,55,55,50,45,77,48,24,30.10,30.06,29.99,10,10,10,15,5,23,0.00,0,,117
2013-9-3,84,75,66,63,58,52,78,55,39,30.11,30.04,30.00,10,10,10,13,5,,0.00,2,Rain,87
2013-9-4,87,73,59,63,60,55,88,65,40,30.18,30.15,30.11,10,10,10,14,5,20,0.00,0,Thunderstorm,105
2013-9-5,91,76,62,66,62,55,100,65,34,30.22,30.13,30.03,10,10,8,17,8,29,0.14,1,Rain-Thunderstorm,124
2013-9-6,91,78,66,64,60,55,78,56,29,30.12,30.06,30.01,10,10,10,13,5,18,0.02,0,Rain,309
2013-9-7,91,76,62,66,60,50,94,60,26,30.11,30.06,29.98,10,10,9,15,7,20,0.01,0,Rain-Thunderstorm,160
2013-9-8,75,68,60,66,63,59,100,85,69,30.08,29.99,29.86,10,9,2,18,10,22,0.44,4,Rain-Thunderstorm,79
2013-9-9,73,66,57,61,55,50,94,72,46,30.03,29.95,29.82,10,10,10,16,7,23,0.00,2,,299
2013-9-10,73,64,55,54,50,46,82,64,38,30.20,30.14,30.03,10,10,10,13,5,18,0.00,0,,260
2013-9-11,77,64,51,52,48,45,82,58,32,30.32,30.26,30.20,10,10,10,12,5,,0.00,0,,155
2013-9-12,77,62,48,52,48,43,87,59,39,30.37,30.31,30.22,10,10,10,23,7,30,0.00,0,,140
2013-9-13,75,67,59,59,54,46,100,65,49,30.21,30.06,29.90,10,10,6,20,12,26,0.02,3,Rain,159
2013-9-14,69,62,55,63,59,55,100,89,60,30.11,29.93,29.85,10,9,0,16,6,24,0.89,6,Rain,297
2013-9-15,66,58,50,59,52,43,100,82,52,30.31,30.24,30.12,10,8,0,18,10,21,0.00,5,Fog-Rain,99
2013-9-16,75,60,44,57,49,41,93,69,44,30.23,30.05,29.91,10,10,8,10,4,,0.00,0,,187
2013-9-17,86,70,53,55,51,41,94,55,23,29.91,29.82,29.72,10,10,10,15,4,21,0.00,1,Thunderstorm,138
2013-9-18,82,68,55,52,48,41,77,55,30,29.95,29.76,29.67,10,10,8,20,8,36,0.00,1,Rain-Thunderstorm,266
2013-9-19,59,52,44,45,39,36,76,64,42,30.18,30.09,29.96,10,10,10,24,12,32,0.00,1,,289
2013-9-20,69,53,37,41,37,34,87,57,28,30.18,30.08,29.94,10,10,10,13,5,16,0.00,0,,337
2013-9-21,80,62,44,46,37,32,66,41,24,29.93,29.80,29.69,10,10,10,14,4,,0.00,0,,136
2013-9-22,86,72,59,52,42,32,72,37,23,29.69,29.61,29.53,10,10,10,24,12,44,0.00,1,Rain-Thunderstorm,208
2013-9-23,66,56,46,54,49,41,100,80,45,29.97,29.76,29.52,10,9,3,18,11,29,1.01,5,Rain,282
2013-9-24,73,58,42,45,39,36,76,50,25,30.04,29.93,29.74,10,10,6,29,5,39,0.00,0,,157
2013-9-25,66,58,50,52,44,34,94,57,32,29.73,29.65,29.54,10,10,4,24,11,33,0.11,1,Rain-Thunderstorm,303
2013-9-26,59,52,44,48,43,36,100,76,54,29.97,29.80,29.64,10,10,10,17,11,24,0.00,6,,315
2013-9-27,44,40,37,39,37,34,100,93,76,29.97,29.94,29.91,10,8,2,10,7,,0.22,6,Rain-Thunderstorm,299
2013-9-28,62,50,37,36,32,30,87,51,30,29.95,29.93,29.90,10,10,10,24,13,34,0.00,1,,258
2013-9-29,73,60,46,37,35,32,66,38,25,29.92,29.77,29.68,10,10,10,28,13,39,0.00,0,,248
2013-9-30,78,63,48,48,37,28,77,42,23,29.88,29.70,29.56,10,10,10,33,12,47,0.00,0,,258